sensor_id;sensor_type;location;lat;lon;timestamp;P1;durP1;ratioP1;P2;durP2;ratioP2
36291;SDS011;22327;51.208;6.418;2022-08-25T00:02:14;6.13;;;2.65;;
36291;SDS011;22327;51.208;6.418;2022-08-25T00:04:40;3.55;;;3.00;;
36291;SDS011;22327;51.208;6.418;2022-08-25T00:07:06;3.67;;;2.90;;
36291;SDS011;22327;51.208;6.418;2022-08-25T00:09:32;5.32;;;2.80;;
36291;SDS011;22327;51.208;6.418;2022-08-25T00:11:59;7.07;;;2.90;;
36291;SDS011;22327;51.208;6.418;2022-08-25T00:14:27;3.53;;;2.45;;
36291;SDS011;22327;51.208;6.418;2022-08-25T00:16:55;4.68;;;2.50;;
36291;SDS011;22327;51.208;6.418;2022-08-25T00:19:25;2.63;;;2.40;;
36291;SDS011;22327;51.208;6.418;2022-08-25T00:21:53;6.40;;;3.00;;
36291;SDS011;22327;51.208;6.418;2022-08-25T00:24:19;4.60;;;2.83;;
36291;SDS011;22327;51.208;6.418;2022-08-25T00:26:46;5.25;;;2.33;;
36291;SDS011;22327;51.208;6.418;2022-08-25T00:29:15;4.97;;;2.42;;
36291;SDS011;22327;51.208;6.418;2022-08-25T00:31:41;4.05;;;2.58;;
36291;SDS011;22327;51.208;6.418;2022-08-25T00:34:09;4.50;;;2.38;;
36291;SDS011;22327;51.208;6.418;2022-08-25T00:36:38;2.83;;;2.40;;
36291;SDS011;22327;51.208;6.418;2022-08-25T00:39:05;3.72;;;2.47;;
36291;SDS011;22327;51.208;6.418;2022-08-25T00:41:32;4.88;;;2.70;;
36291;SDS011;22327;51.208;6.418;2022-08-25T00:44:00;5.50;;;2.60;;
36291;SDS011;22327;51.208;6.418;2022-08-25T00:46:34;3.25;;;2.35;;
36291;SDS011;22327;51.208;6.418;2022-08-25T00:49:11;5.60;;;2.65;;
36291;SDS011;22327;51.208;6.418;2022-08-25T00:51:54;4.00;;;3.15;;
36291;SDS011;22327;51.208;6.418;2022-08-25T00:54:25;4.95;;;2.90;;
36291;SDS011;22327;51.208;6.418;2022-08-25T00:56:55;5.00;;;2.70;;
36291;SDS011;22327;51.208;6.418;2022-08-25T00:59:22;3.55;;;2.90;;
36291;SDS011;22327;51.208;6.418;2022-08-25T01:01:50;6.85;;;2.75;;
36291;SDS011;22327;51.208;6.418;2022-08-25T01:04:18;4.38;;;2.20;;
36291;SDS011;22327;51.208;6.418;2022-08-25T01:06:44;4.60;;;2.30;;
36291;SDS011;22327;51.208;6.418;2022-08-25T01:09:13;2.97;;;2.10;;
36291;SDS011;22327;51.208;6.418;2022-08-25T01:11:40;2.53;;;2.30;;
36291;SDS011;22327;51.208;6.418;2022-08-25T01:14:08;7.20;;;2.55;;
36291;SDS011;22327;51.208;6.418;2022-08-25T01:16:36;4.78;;;2.55;;
36291;SDS011;22327;51.208;6.418;2022-08-25T01:19:03;5.25;;;2.47;;
36291;SDS011;22327;51.208;6.418;2022-08-25T01:21:30;4.35;;;2.50;;
36291;SDS011;22327;51.208;6.418;2022-08-25T01:24:01;3.90;;;2.35;;
36291;SDS011;22327;51.208;6.418;2022-08-25T01:26:28;2.85;;;2.30;;
36291;SDS011;22327;51.208;6.418;2022-08-25T01:28:56;4.72;;;2.60;;
36291;SDS011;22327;51.208;6.418;2022-08-25T01:31:42;3.08;;;2.25;;
36291;SDS011;22327;51.208;6.418;2022-08-25T01:34:08;2.85;;;2.53;;
36291;SDS011;22327;51.208;6.418;2022-08-25T01:36:36;2.40;;;2.20;;
36291;SDS011;22327;51.208;6.418;2022-08-25T01:39:02;3.13;;;2.25;;
36291;SDS011;22327;51.208;6.418;2022-08-25T01:44:17;3.47;;;2.47;;
36291;SDS011;22327;51.208;6.418;2022-08-25T01:46:43;3.83;;;2.20;;
36291;SDS011;22327;51.208;6.418;2022-08-25T01:49:08;4.10;;;2.55;;
36291;SDS011;22327;51.208;6.418;2022-08-25T01:51:47;3.47;;;2.50;;
36291;SDS011;22327;51.208;6.418;2022-08-25T01:54:19;4.88;;;2.42;;
36291;SDS011;22327;51.208;6.418;2022-08-25T01:56:45;2.60;;;2.40;;
36291;SDS011;22327;51.208;6.418;2022-08-25T01:59:13;2.60;;;2.40;;
36291;SDS011;22327;51.208;6.418;2022-08-25T02:01:39;3.05;;;2.35;;
36291;SDS011;22327;51.208;6.418;2022-08-25T02:04:05;4.85;;;2.22;;
36291;SDS011;22327;51.208;6.418;2022-08-25T02:06:31;4.47;;;2.50;;
36291;SDS011;22327;51.208;6.418;2022-08-25T02:08:58;2.35;;;2.15;;
36291;SDS011;22327;51.208;6.418;2022-08-25T02:11:45;7.03;;;2.10;;
36291;SDS011;22327;51.208;6.418;2022-08-25T02:14:11;4.05;;;2.13;;
36291;SDS011;22327;51.208;6.418;2022-08-25T02:16:39;5.32;;;2.85;;
36291;SDS011;22327;51.208;6.418;2022-08-25T02:19:09;2.70;;;2.20;;
36291;SDS011;22327;51.208;6.418;2022-08-25T02:21:36;2.42;;;1.92;;
36291;SDS011;22327;51.208;6.418;2022-08-25T02:24:02;3.15;;;2.05;;
36291;SDS011;22327;51.208;6.418;2022-08-25T02:26:28;2.80;;;2.05;;
36291;SDS011;22327;51.208;6.418;2022-08-25T02:28:54;3.20;;;2.15;;
36291;SDS011;22327;51.208;6.418;2022-08-25T02:31:20;3.35;;;2.00;;
36291;SDS011;22327;51.208;6.418;2022-08-25T02:33:49;21.88;;;3.25;;
36291;SDS011;22327;51.208;6.418;2022-08-25T02:36:15;3.30;;;2.00;;
36291;SDS011;22327;51.208;6.418;2022-08-25T02:38:41;5.30;;;2.55;;
36291;SDS011;22327;51.208;6.418;2022-08-25T02:41:15;3.30;;;1.83;;
36291;SDS011;22327;51.208;6.418;2022-08-25T02:43:43;3.70;;;1.88;;
36291;SDS011;22327;51.208;6.418;2022-08-25T02:46:11;2.30;;;1.90;;
36291;SDS011;22327;51.208;6.418;2022-08-25T02:48:37;4.97;;;2.30;;
36291;SDS011;22327;51.208;6.418;2022-08-25T02:51:03;2.70;;;1.80;;
36291;SDS011;22327;51.208;6.418;2022-08-25T02:53:31;3.05;;;2.17;;
36291;SDS011;22327;51.208;6.418;2022-08-25T02:55:57;3.75;;;1.80;;
36291;SDS011;22327;51.208;6.418;2022-08-25T02:58:22;2.55;;;2.28;;
36291;SDS011;22327;51.208;6.418;2022-08-25T03:00:48;2.13;;;1.85;;
36291;SDS011;22327;51.208;6.418;2022-08-25T03:03:15;2.90;;;2.03;;
36291;SDS011;22327;51.208;6.418;2022-08-25T03:05:41;2.85;;;1.98;;
36291;SDS011;22327;51.208;6.418;2022-08-25T03:08:06;2.05;;;1.80;;
36291;SDS011;22327;51.208;6.418;2022-08-25T03:10:33;2.30;;;2.10;;
36291;SDS011;22327;51.208;6.418;2022-08-25T03:12:59;3.75;;;2.28;;
36291;SDS011;22327;51.208;6.418;2022-08-25T03:15:24;2.53;;;1.95;;
36291;SDS011;22327;51.208;6.418;2022-08-25T03:17:51;2.30;;;2.08;;
36291;SDS011;22327;51.208;6.418;2022-08-25T03:20:18;3.80;;;1.88;;
36291;SDS011;22327;51.208;6.418;2022-08-25T03:22:44;2.88;;;1.98;;
36291;SDS011;22327;51.208;6.418;2022-08-25T03:25:10;2.03;;;1.80;;
36291;SDS011;22327;51.208;6.418;2022-08-25T03:27:54;2.47;;;1.80;;
36291;SDS011;22327;51.208;6.418;2022-08-25T03:30:20;3.45;;;1.80;;
36291;SDS011;22327;51.208;6.418;2022-08-25T03:32:46;3.75;;;2.15;;
36291;SDS011;22327;51.208;6.418;2022-08-25T03:35:11;2.78;;;2.05;;
36291;SDS011;22327;51.208;6.418;2022-08-25T03:37:38;3.13;;;2.42;;
36291;SDS011;22327;51.208;6.418;2022-08-25T03:40:04;2.95;;;2.10;;
36291;SDS011;22327;51.208;6.418;2022-08-25T03:42:33;6.57;;;2.33;;
36291;SDS011;22327;51.208;6.418;2022-08-25T03:45:01;4.25;;;2.25;;
36291;SDS011;22327;51.208;6.418;2022-08-25T03:47:27;3.78;;;2.08;;
36291;SDS011;22327;51.208;6.418;2022-08-25T03:49:53;2.55;;;2.00;;
36291;SDS011;22327;51.208;6.418;2022-08-25T03:52:20;4.97;;;2.10;;
36291;SDS011;22327;51.208;6.418;2022-08-25T03:54:46;2.58;;;2.30;;
36291;SDS011;22327;51.208;6.418;2022-08-25T03:57:11;2.75;;;1.83;;
36291;SDS011;22327;51.208;6.418;2022-08-25T03:59:37;3.78;;;1.92;;
36291;SDS011;22327;51.208;6.418;2022-08-25T04:02:03;4.13;;;2.10;;
36291;SDS011;22327;51.208;6.418;2022-08-25T04:04:29;3.65;;;2.50;;
36291;SDS011;22327;51.208;6.418;2022-08-25T04:06:55;3.17;;;1.92;;
36291;SDS011;22327;51.208;6.418;2022-08-25T04:09:21;2.33;;;1.90;;
36291;SDS011;22327;51.208;6.418;2022-08-25T04:11:47;2.13;;;1.80;;
36291;SDS011;22327;51.208;6.418;2022-08-25T04:14:12;3.92;;;2.40;;
36291;SDS011;22327;51.208;6.418;2022-08-25T04:16:38;2.58;;;2.38;;
36291;SDS011;22327;51.208;6.418;2022-08-25T04:19:05;3.75;;;2.67;;
36291;SDS011;22327;51.208;6.418;2022-08-25T04:21:33;3.00;;;1.92;;
36291;SDS011;22327;51.208;6.418;2022-08-25T04:24:00;2.20;;;2.00;;
36291;SDS011;22327;51.208;6.418;2022-08-25T04:26:30;2.92;;;2.10;;
36291;SDS011;22327;51.208;6.418;2022-08-25T04:28:58;2.42;;;2.10;;
36291;SDS011;22327;51.208;6.418;2022-08-25T04:31:25;2.95;;;2.25;;
36291;SDS011;22327;51.208;6.418;2022-08-25T04:33:51;4.20;;;2.25;;
36291;SDS011;22327;51.208;6.418;2022-08-25T04:36:17;6.20;;;2.30;;
36291;SDS011;22327;51.208;6.418;2022-08-25T04:38:44;2.17;;;1.98;;
36291;SDS011;22327;51.208;6.418;2022-08-25T04:41:11;3.95;;;2.28;;
36291;SDS011;22327;51.208;6.418;2022-08-25T04:43:38;2.90;;;2.33;;
36291;SDS011;22327;51.208;6.418;2022-08-25T04:46:06;3.60;;;2.10;;
36291;SDS011;22327;51.208;6.418;2022-08-25T04:48:38;3.05;;;2.28;;
36291;SDS011;22327;51.208;6.418;2022-08-25T04:51:08;2.80;;;2.42;;
36291;SDS011;22327;51.208;6.418;2022-08-25T04:53:40;4.18;;;2.30;;
36291;SDS011;22327;51.208;6.418;2022-08-25T04:56:10;4.05;;;2.13;;
36291;SDS011;22327;51.208;6.418;2022-08-25T04:58:38;3.58;;;2.30;;
36291;SDS011;22327;51.208;6.418;2022-08-25T05:01:15;2.80;;;2.17;;
36291;SDS011;22327;51.208;6.418;2022-08-25T05:03:43;4.25;;;2.70;;
36291;SDS011;22327;51.208;6.418;2022-08-25T05:06:16;3.63;;;2.40;;
36291;SDS011;22327;51.208;6.418;2022-08-25T05:08:42;3.90;;;2.40;;
36291;SDS011;22327;51.208;6.418;2022-08-25T05:11:09;4.43;;;2.30;;
36291;SDS011;22327;51.208;6.418;2022-08-25T05:13:38;2.47;;;2.15;;
36291;SDS011;22327;51.208;6.418;2022-08-25T05:16:04;8.32;;;2.40;;
36291;SDS011;22327;51.208;6.418;2022-08-25T05:18:31;3.42;;;2.25;;
36291;SDS011;22327;51.208;6.418;2022-08-25T05:21:01;3.35;;;2.22;;
36291;SDS011;22327;51.208;6.418;2022-08-25T05:23:29;2.80;;;2.55;;
36291;SDS011;22327;51.208;6.418;2022-08-25T05:25:56;4.38;;;2.25;;
36291;SDS011;22327;51.208;6.418;2022-08-25T05:28:30;4.63;;;2.20;;
36291;SDS011;22327;51.208;6.418;2022-08-25T05:31:00;3.08;;;2.28;;
36291;SDS011;22327;51.208;6.418;2022-08-25T05:33:27;5.70;;;2.35;;
36291;SDS011;22327;51.208;6.418;2022-08-25T05:35:52;3.90;;;2.58;;
36291;SDS011;22327;51.208;6.418;2022-08-25T05:38:18;4.30;;;2.67;;
36291;SDS011;22327;51.208;6.418;2022-08-25T05:40:44;3.22;;;2.42;;
36291;SDS011;22327;51.208;6.418;2022-08-25T05:43:09;3.67;;;2.60;;
36291;SDS011;22327;51.208;6.418;2022-08-25T05:45:36;2.83;;;2.40;;
36291;SDS011;22327;51.208;6.418;2022-08-25T05:48:03;3.88;;;2.60;;
36291;SDS011;22327;51.208;6.418;2022-08-25T05:50:28;4.53;;;2.40;;
36291;SDS011;22327;51.208;6.418;2022-08-25T05:52:54;3.80;;;2.35;;
36291;SDS011;22327;51.208;6.418;2022-08-25T05:55:19;2.25;;;2.13;;
36291;SDS011;22327;51.208;6.418;2022-08-25T05:57:45;5.22;;;2.17;;
36291;SDS011;22327;51.208;6.418;2022-08-25T06:00:11;2.40;;;2.20;;
36291;SDS011;22327;51.208;6.418;2022-08-25T06:02:37;4.43;;;2.50;;
36291;SDS011;22327;51.208;6.418;2022-08-25T06:05:12;3.40;;;2.03;;
36291;SDS011;22327;51.208;6.418;2022-08-25T06:10:07;2.78;;;2.47;;
36291;SDS011;22327;51.208;6.418;2022-08-25T06:12:38;3.03;;;2.35;;
36291;SDS011;22327;51.208;6.418;2022-08-25T06:15:06;3.13;;;2.53;;
36291;SDS011;22327;51.208;6.418;2022-08-25T06:17:32;4.10;;;2.35;;
36291;SDS011;22327;51.208;6.418;2022-08-25T06:19:59;5.88;;;2.55;;
36291;SDS011;22327;51.208;6.418;2022-08-25T06:22:25;2.58;;;2.38;;
36291;SDS011;22327;51.208;6.418;2022-08-25T06:24:50;2.60;;;2.40;;
36291;SDS011;22327;51.208;6.418;2022-08-25T06:27:17;4.95;;;2.58;;
36291;SDS011;22327;51.208;6.418;2022-08-25T06:29:42;4.00;;;2.15;;
36291;SDS011;22327;51.208;6.418;2022-08-25T06:32:08;3.15;;;2.83;;
36291;SDS011;22327;51.208;6.418;2022-08-25T06:34:34;6.20;;;2.60;;
36291;SDS011;22327;51.208;6.418;2022-08-25T06:36:59;6.47;;;2.05;;
36291;SDS011;22327;51.208;6.418;2022-08-25T06:39:25;5.25;;;2.55;;
36291;SDS011;22327;51.208;6.418;2022-08-25T06:41:51;4.53;;;2.55;;
36291;SDS011;22327;51.208;6.418;2022-08-25T06:44:19;7.13;;;2.45;;
36291;SDS011;22327;51.208;6.418;2022-08-25T06:46:45;3.42;;;2.60;;
36291;SDS011;22327;51.208;6.418;2022-08-25T06:49:11;4.25;;;2.35;;
36291;SDS011;22327;51.208;6.418;2022-08-25T06:51:36;3.97;;;2.40;;
36291;SDS011;22327;51.208;6.418;2022-08-25T06:54:03;4.03;;;2.20;;
36291;SDS011;22327;51.208;6.418;2022-08-25T06:56:30;3.38;;;2.40;;
36291;SDS011;22327;51.208;6.418;2022-08-25T06:58:56;3.10;;;2.35;;
36291;SDS011;22327;51.208;6.418;2022-08-25T07:01:23;3.10;;;2.30;;
36291;SDS011;22327;51.208;6.418;2022-08-25T07:03:51;4.63;;;2.50;;
36291;SDS011;22327;51.208;6.418;2022-08-25T07:06:21;2.25;;;2.05;;
36291;SDS011;22327;51.208;6.418;2022-08-25T07:08:47;3.65;;;2.30;;
36291;SDS011;22327;51.208;6.418;2022-08-25T07:11:13;3.03;;;2.20;;
36291;SDS011;22327;51.208;6.418;2022-08-25T07:13:40;2.92;;;2.45;;
36291;SDS011;22327;51.208;6.418;2022-08-25T07:16:05;2.42;;;2.22;;
36291;SDS011;22327;51.208;6.418;2022-08-25T07:18:32;3.95;;;2.38;;
36291;SDS011;22327;51.208;6.418;2022-08-25T07:20:58;2.88;;;2.55;;
36291;SDS011;22327;51.208;6.418;2022-08-25T07:23:24;2.88;;;2.30;;
36291;SDS011;22327;51.208;6.418;2022-08-25T07:25:51;2.78;;;2.17;;
36291;SDS011;22327;51.208;6.418;2022-08-25T07:28:18;4.30;;;2.60;;
36291;SDS011;22327;51.208;6.418;2022-08-25T07:30:45;4.35;;;2.40;;
36291;SDS011;22327;51.208;6.418;2022-08-25T07:33:11;4.68;;;2.33;;
36291;SDS011;22327;51.208;6.418;2022-08-25T07:35:37;6.75;;;2.50;;
36291;SDS011;22327;51.208;6.418;2022-08-25T07:38:03;5.22;;;2.72;;
36291;SDS011;22327;51.208;6.418;2022-08-25T07:40:31;5.63;;;2.58;;
36291;SDS011;22327;51.208;6.418;2022-08-25T07:43:00;3.40;;;2.38;;
36291;SDS011;22327;51.208;6.418;2022-08-25T07:45:29;3.35;;;2.28;;
36291;SDS011;22327;51.208;6.418;2022-08-25T07:47:57;3.63;;;2.22;;
36291;SDS011;22327;51.208;6.418;2022-08-25T07:50:44;4.85;;;2.38;;
36291;SDS011;22327;51.208;6.418;2022-08-25T07:53:12;8.82;;;2.45;;
36291;SDS011;22327;51.208;6.418;2022-08-25T07:55:38;2.90;;;2.30;;
36291;SDS011;22327;51.208;6.418;2022-08-25T07:58:06;4.60;;;2.47;;
36291;SDS011;22327;51.208;6.418;2022-08-25T08:00:33;5.43;;;2.45;;
36291;SDS011;22327;51.208;6.418;2022-08-25T08:03:01;6.55;;;2.13;;
36291;SDS011;22327;51.208;6.418;2022-08-25T08:05:28;3.53;;;2.30;;
36291;SDS011;22327;51.208;6.418;2022-08-25T08:07:54;3.85;;;2.20;;
36291;SDS011;22327;51.208;6.418;2022-08-25T08:10:21;3.50;;;2.65;;
36291;SDS011;22327;51.208;6.418;2022-08-25T08:12:47;5.10;;;2.28;;
36291;SDS011;22327;51.208;6.418;2022-08-25T08:15:13;2.33;;;2.13;;
36291;SDS011;22327;51.208;6.418;2022-08-25T08:17:39;5.28;;;2.22;;
36291;SDS011;22327;51.208;6.418;2022-08-25T08:20:06;2.70;;;2.05;;
36291;SDS011;22327;51.208;6.418;2022-08-25T08:22:33;2.65;;;2.00;;
36291;SDS011;22327;51.208;6.418;2022-08-25T08:25:06;6.05;;;2.97;;
36291;SDS011;22327;51.208;6.418;2022-08-25T08:27:34;10.55;;;2.65;;
36291;SDS011;22327;51.208;6.418;2022-08-25T08:30:00;3.92;;;2.53;;
36291;SDS011;22327;51.208;6.418;2022-08-25T08:32:26;5.90;;;2.42;;
36291;SDS011;22327;51.208;6.418;2022-08-25T08:34:51;5.38;;;2.38;;
36291;SDS011;22327;51.208;6.418;2022-08-25T08:37:17;7.55;;;2.50;;
36291;SDS011;22327;51.208;6.418;2022-08-25T08:39:43;5.00;;;2.03;;
36291;SDS011;22327;51.208;6.418;2022-08-25T08:42:13;2.42;;;2.20;;
36291;SDS011;22327;51.208;6.418;2022-08-25T08:44:55;5.95;;;2.20;;
36291;SDS011;22327;51.208;6.418;2022-08-25T08:53:22;2.72;;;2.20;;
36291;SDS011;22327;51.208;6.418;2022-08-25T08:55:53;6.03;;;2.58;;
36291;SDS011;22327;51.208;6.418;2022-08-25T09:00:50;3.67;;;2.53;;
36291;SDS011;22327;51.208;6.418;2022-08-25T09:05:54;6.40;;;2.53;;
36291;SDS011;22327;51.208;6.418;2022-08-25T09:08:22;3.63;;;2.13;;
36291;SDS011;22327;51.208;6.418;2022-08-25T09:11:07;4.80;;;2.67;;
36291;SDS011;22327;51.208;6.418;2022-08-25T09:16:24;3.17;;;2.30;;
36291;SDS011;22327;51.208;6.418;2022-08-25T09:22:14;2.15;;;1.92;;
36291;SDS011;22327;51.208;6.418;2022-08-25T09:24:56;5.50;;;2.17;;
36291;SDS011;22327;51.208;6.418;2022-08-25T09:30:19;4.65;;;2.30;;
36291;SDS011;22327;51.208;6.418;2022-08-25T09:32:54;5.07;;;2.13;;
36291;SDS011;22327;51.208;6.418;2022-08-25T09:35:29;5.28;;;2.17;;
36291;SDS011;22327;51.208;6.418;2022-08-25T09:38:00;4.30;;;2.47;;
36291;SDS011;22327;51.208;6.418;2022-08-25T09:40:29;4.20;;;2.15;;
36291;SDS011;22327;51.208;6.418;2022-08-25T09:42:58;6.05;;;2.40;;
36291;SDS011;22327;51.208;6.418;2022-08-25T09:45:30;2.55;;;2.30;;
36291;SDS011;22327;51.208;6.418;2022-08-25T09:48:20;4.47;;;2.87;;
36291;SDS011;22327;51.208;6.418;2022-08-25T09:50:45;2.67;;;2.42;;
36291;SDS011;22327;51.208;6.418;2022-08-25T09:53:12;6.22;;;2.22;;
36291;SDS011;22327;51.208;6.418;2022-08-25T09:55:40;2.80;;;2.38;;
36291;SDS011;22327;51.208;6.418;2022-08-25T09:58:17;3.08;;;2.25;;
36291;SDS011;22327;51.208;6.418;2022-08-25T10:00:59;3.30;;;2.67;;
36291;SDS011;22327;51.208;6.418;2022-08-25T10:03:27;2.78;;;2.58;;
36291;SDS011;22327;51.208;6.418;2022-08-25T10:06:06;3.45;;;2.80;;
36291;SDS011;22327;51.208;6.418;2022-08-25T10:08:40;5.18;;;2.67;;
36291;SDS011;22327;51.208;6.418;2022-08-25T10:11:37;4.22;;;2.72;;
36291;SDS011;22327;51.208;6.418;2022-08-25T10:16:35;3.75;;;2.63;;
36291;SDS011;22327;51.208;6.418;2022-08-25T10:21:31;5.38;;;2.90;;
36291;SDS011;22327;51.208;6.418;2022-08-25T10:23:58;3.03;;;2.40;;
36291;SDS011;22327;51.208;6.418;2022-08-25T10:29:27;3.72;;;2.35;;
36291;SDS011;22327;51.208;6.418;2022-08-25T10:32:17;2.75;;;2.47;;
36291;SDS011;22327;51.208;6.418;2022-08-25T10:34:53;4.88;;;2.65;;
36291;SDS011;22327;51.208;6.418;2022-08-25T10:40:43;4.35;;;2.80;;
36291;SDS011;22327;51.208;6.418;2022-08-25T10:42:58;3.05;;;2.75;;
36291;SDS011;22327;51.208;6.418;2022-08-25T10:45:30;3.72;;;2.60;;
36291;SDS011;22327;51.208;6.418;2022-08-25T10:55:55;4.28;;;2.30;;
36291;SDS011;22327;51.208;6.418;2022-08-25T11:04:27;6.22;;;2.22;;
36291;SDS011;22327;51.208;6.418;2022-08-25T11:07:02;2.95;;;2.22;;
36291;SDS011;22327;51.208;6.418;2022-08-25T11:09:42;4.32;;;2.75;;
36291;SDS011;22327;51.208;6.418;2022-08-25T11:12:26;6.03;;;2.33;;
36291;SDS011;22327;51.208;6.418;2022-08-25T11:14:57;5.22;;;2.75;;
36291;SDS011;22327;51.208;6.418;2022-08-25T11:17:27;5.15;;;2.70;;
36291;SDS011;22327;51.208;6.418;2022-08-25T11:20:04;3.47;;;2.10;;
36291;SDS011;22327;51.208;6.418;2022-08-25T11:22:46;3.95;;;2.40;;
36291;SDS011;22327;51.208;6.418;2022-08-25T11:25:20;2.25;;;1.85;;
36291;SDS011;22327;51.208;6.418;2022-08-25T11:28:07;2.60;;;2.40;;
36291;SDS011;22327;51.208;6.418;2022-08-25T11:30:39;3.97;;;2.38;;
36291;SDS011;22327;51.208;6.418;2022-08-25T11:33:05;2.67;;;2.10;;
36291;SDS011;22327;51.208;6.418;2022-08-25T11:35:33;4.00;;;2.40;;
36291;SDS011;22327;51.208;6.418;2022-08-25T11:41:14;3.47;;;1.92;;
36291;SDS011;22327;51.208;6.418;2022-08-25T11:55:10;3.67;;;1.80;;
36291;SDS011;22327;51.208;6.418;2022-08-25T11:57:37;5.40;;;1.92;;
36291;SDS011;22327;51.208;6.418;2022-08-25T12:00:09;1.70;;;1.60;;
36291;SDS011;22327;51.208;6.418;2022-08-25T12:02:48;2.03;;;1.83;;
36291;SDS011;22327;51.208;6.418;2022-08-25T12:13:37;3.87;;;1.60;;
36291;SDS011;22327;51.208;6.418;2022-08-25T12:21:51;4.63;;;2.00;;
36291;SDS011;22327;51.208;6.418;2022-08-25T12:24:20;3.33;;;2.17;;
36291;SDS011;22327;51.208;6.418;2022-08-25T12:27:08;2.63;;;1.90;;
36291;SDS011;22327;51.208;6.418;2022-08-25T12:29:59;3.00;;;1.83;;
36291;SDS011;22327;51.208;6.418;2022-08-25T12:36:05;3.35;;;2.10;;
36291;SDS011;22327;51.208;6.418;2022-08-25T12:41:13;2.72;;;1.80;;
36291;SDS011;22327;51.208;6.418;2022-08-25T12:43:51;1.63;;;1.52;;
36291;SDS011;22327;51.208;6.418;2022-08-25T12:46:34;1.77;;;1.60;;
36291;SDS011;22327;51.208;6.418;2022-08-25T12:51:55;1.77;;;1.60;;
36291;SDS011;22327;51.208;6.418;2022-08-25T12:54:44;2.88;;;1.65;;
36291;SDS011;22327;51.208;6.418;2022-08-25T12:57:35;1.98;;;1.75;;
36291;SDS011;22327;51.208;6.418;2022-08-25T13:00:12;2.50;;;1.47;;
36291;SDS011;22327;51.208;6.418;2022-08-25T13:02:55;7.45;;;5.40;;
36291;SDS011;22327;51.208;6.418;2022-08-25T13:05:46;6.65;;;5.10;;
36291;SDS011;22327;51.208;6.418;2022-08-25T13:11:30;1.60;;;1.50;;
36291;SDS011;22327;51.208;6.418;2022-08-25T13:14:18;2.45;;;1.40;;
36291;SDS011;22327;51.208;6.418;2022-08-25T13:16:52;1.95;;;1.65;;
36291;SDS011;22327;51.208;6.418;2022-08-25T13:19:19;2.55;;;1.40;;
36291;SDS011;22327;51.208;6.418;2022-08-25T13:21:46;1.70;;;1.38;;
36291;SDS011;22327;51.208;6.418;2022-08-25T13:24:17;2.65;;;1.55;;
36291;SDS011;22327;51.208;6.418;2022-08-25T13:26:49;2.90;;;1.30;;
36291;SDS011;22327;51.208;6.418;2022-08-25T13:29:21;2.13;;;1.50;;
36291;SDS011;22327;51.208;6.418;2022-08-25T13:31:54;1.30;;;1.20;;
36291;SDS011;22327;51.208;6.418;2022-08-25T13:34:31;2.08;;;1.77;;
36291;SDS011;22327;51.208;6.418;2022-08-25T13:37:06;2.60;;;1.63;;
36291;SDS011;22327;51.208;6.418;2022-08-25T13:40:10;3.53;;;1.50;;
36291;SDS011;22327;51.208;6.418;2022-08-25T13:42:43;1.77;;;1.40;;
36291;SDS011;22327;51.208;6.418;2022-08-25T13:45:20;3.42;;;1.50;;
36291;SDS011;22327;51.208;6.418;2022-08-25T13:47:52;5.15;;;1.33;;
36291;SDS011;22327;51.208;6.418;2022-08-25T13:53:03;2.00;;;1.80;;
36291;SDS011;22327;51.208;6.418;2022-08-25T13:58:14;1.75;;;1.42;;
36291;SDS011;22327;51.208;6.418;2022-08-25T14:00:44;1.70;;;1.40;;
36291;SDS011;22327;51.208;6.418;2022-08-25T14:06:07;2.00;;;0.98;;
36291;SDS011;22327;51.208;6.418;2022-08-25T14:08:42;1.77;;;1.48;;
36291;SDS011;22327;51.208;6.418;2022-08-25T14:11:30;3.00;;;1.67;;
36291;SDS011;22327;51.208;6.418;2022-08-25T14:14:04;1.88;;;1.42;;
36291;SDS011;22327;51.208;6.418;2022-08-25T14:16:35;2.05;;;1.70;;
36291;SDS011;22327;51.208;6.418;2022-08-25T14:19:21;3.53;;;1.45;;
36291;SDS011;22327;51.208;6.418;2022-08-25T14:21:49;1.70;;;1.27;;
36291;SDS011;22327;51.208;6.418;2022-08-25T14:24:17;2.53;;;1.50;;
36291;SDS011;22327;51.208;6.418;2022-08-25T14:26:45;4.63;;;1.40;;
36291;SDS011;22327;51.208;6.418;2022-08-25T14:29:11;3.15;;;1.73;;
36291;SDS011;22327;51.208;6.418;2022-08-25T14:31:39;2.67;;;1.50;;
36291;SDS011;22327;51.208;6.418;2022-08-25T14:34:14;1.85;;;1.55;;
36291;SDS011;22327;51.208;6.418;2022-08-25T14:36:43;4.20;;;1.75;;
36291;SDS011;22327;51.208;6.418;2022-08-25T14:39:10;4.53;;;1.40;;
36291;SDS011;22327;51.208;6.418;2022-08-25T14:41:36;2.28;;;1.50;;
36291;SDS011;22327;51.208;6.418;2022-08-25T14:44:08;2.90;;;1.60;;
36291;SDS011;22327;51.208;6.418;2022-08-25T14:46:35;2.03;;;1.50;;
36291;SDS011;22327;51.208;6.418;2022-08-25T14:49:05;3.35;;;1.52;;
36291;SDS011;22327;51.208;6.418;2022-08-25T14:51:34;1.58;;;1.38;;
36291;SDS011;22327;51.208;6.418;2022-08-25T14:54:05;2.08;;;1.33;;
36291;SDS011;22327;51.208;6.418;2022-08-25T14:56:33;3.08;;;1.55;;
36291;SDS011;22327;51.208;6.418;2022-08-25T14:58:59;1.40;;;1.23;;
36291;SDS011;22327;51.208;6.418;2022-08-25T15:01:25;1.90;;;1.35;;
36291;SDS011;22327;51.208;6.418;2022-08-25T15:03:53;2.83;;;1.60;;
36291;SDS011;22327;51.208;6.418;2022-08-25T15:06:22;2.58;;;1.65;;
36291;SDS011;22327;51.208;6.418;2022-08-25T15:08:47;1.60;;;1.50;;
36291;SDS011;22327;51.208;6.418;2022-08-25T15:11:31;1.40;;;1.30;;
36291;SDS011;22327;51.208;6.418;2022-08-25T15:13:57;1.48;;;1.38;;
36291;SDS011;22327;51.208;6.418;2022-08-25T15:16:31;2.97;;;1.67;;
36291;SDS011;22327;51.208;6.418;2022-08-25T15:18:58;2.70;;;1.80;;
36291;SDS011;22327;51.208;6.418;2022-08-25T15:21:24;2.35;;;1.35;;
36291;SDS011;22327;51.208;6.418;2022-08-25T15:23:50;2.05;;;1.85;;
36291;SDS011;22327;51.208;6.418;2022-08-25T15:26:16;1.70;;;1.60;;
36291;SDS011;22327;51.208;6.418;2022-08-25T15:28:43;2.25;;;1.52;;
36291;SDS011;22327;51.208;6.418;2022-08-25T15:31:12;2.00;;;1.65;;
36291;SDS011;22327;51.208;6.418;2022-08-25T15:33:43;2.60;;;1.38;;
36291;SDS011;22327;51.208;6.418;2022-08-25T15:36:09;3.75;;;1.83;;
36291;SDS011;22327;51.208;6.418;2022-08-25T15:38:37;3.00;;;1.58;;
36291;SDS011;22327;51.208;6.418;2022-08-25T15:41:04;1.40;;;1.30;;
36291;SDS011;22327;51.208;6.418;2022-08-25T15:43:33;2.35;;;1.65;;
36291;SDS011;22327;51.208;6.418;2022-08-25T15:45:59;1.90;;;1.70;;
36291;SDS011;22327;51.208;6.418;2022-08-25T15:48:24;3.15;;;1.75;;
36291;SDS011;22327;51.208;6.418;2022-08-25T15:50:54;1.70;;;1.45;;
36291;SDS011;22327;51.208;6.418;2022-08-25T15:53:21;1.73;;;1.55;;
36291;SDS011;22327;51.208;6.418;2022-08-25T15:55:49;1.95;;;1.63;;
36291;SDS011;22327;51.208;6.418;2022-08-25T15:58:16;2.70;;;1.80;;
36291;SDS011;22327;51.208;6.418;2022-08-25T16:00:42;2.85;;;1.77;;
36291;SDS011;22327;51.208;6.418;2022-08-25T16:03:08;3.03;;;2.03;;
36291;SDS011;22327;51.208;6.418;2022-08-25T16:05:34;2.20;;;2.00;;
36291;SDS011;22327;51.208;6.418;2022-08-25T16:08:00;2.53;;;1.88;;
36291;SDS011;22327;51.208;6.418;2022-08-25T16:10:26;2.03;;;1.77;;
36291;SDS011;22327;51.208;6.418;2022-08-25T16:12:52;1.95;;;1.75;;
36291;SDS011;22327;51.208;6.418;2022-08-25T16:15:18;3.03;;;1.92;;
36291;SDS011;22327;51.208;6.418;2022-08-25T16:17:43;2.03;;;1.80;;
36291;SDS011;22327;51.208;6.418;2022-08-25T16:20:21;1.95;;;1.77;;
36291;SDS011;22327;51.208;6.418;2022-08-25T16:22:48;1.98;;;1.60;;
36291;SDS011;22327;51.208;6.418;2022-08-25T16:25:14;2.50;;;1.65;;
36291;SDS011;22327;51.208;6.418;2022-08-25T16:27:39;3.53;;;2.28;;
36291;SDS011;22327;51.208;6.418;2022-08-25T16:30:06;2.10;;;1.90;;
36291;SDS011;22327;51.208;6.418;2022-08-25T16:32:33;2.28;;;1.92;;
36291;SDS011;22327;51.208;6.418;2022-08-25T16:34:58;3.55;;;1.80;;
36291;SDS011;22327;51.208;6.418;2022-08-25T16:37:24;2.65;;;1.50;;
36291;SDS011;22327;51.208;6.418;2022-08-25T16:39:53;2.92;;;1.42;;
36291;SDS011;22327;51.208;6.418;2022-08-25T16:42:19;6.78;;;1.90;;